KTNU/TNU METAR and TAF weather

Enter ICAO airport designator
Station Type Date Time Source
KTNU METAR 2019/05/26 01:35 UTC NOAA

KTNU 260135Z AUTO 00000KT 10SM BKN025 BKN035 BKN055 24/21 A2991 RMK AO2


Station Type Date Time Source
KTNU Decoded METAR 2019/05/26 01:35 UTC NOAA

Newton Municipal, IA, United States (KTNU) 41-41N 093-01W
May 25, 2019 - 09:35 PM EDT / 2019.05.26 0135 UTC
Wind: Calm:0
Visibility: 10 mile(s):0
Sky conditions: mostly cloudy
Temperature: 75 F (24 C)
Dew Point: 69 F (21 C)
Relative Humidity: 83%
Pressure (altimeter): 29.91 in. Hg (1012 hPa)
ob: KTNU 260135Z AUTO 00000KT 10SM BKN025 BKN035 BKN055 24/21 A2991 RMK AO2
cycle: 1

Station Type Date Time Source
KTNU TAF UTC NOAA

Error!

Example: see airport list